Portada
METAR-TAF:

METAR-TAF

Aeropuertos :

Aeropuerto Civil de Amán

Amán, Jordania

latitud: 31-59N, longitud: 035-59E, altitud: 767 m

Observación

El informe se hizo hace 17 minutos, a las 22:00 UTC
Viento calma
Temperatura 22°C
Humedad 50%
Presión 1014 hPa
Visibilidad: 8000 m

METAR: OJAM 192200Z 00000KT 8000 NSC 22/11 Q1014 NOSIG

Hora: 01:17 (22:17 UTC)

Pronóstico

El informe se hizo hace 5 horas y 44 minutos, a las 16:33 UTC
Pronóstico válido del 19 a las 18 UTC al 20 a las 24 UTC
Viento 4 kt del oeste-noroeste
Visibilidad: 6000 m
Temporalmente
del 20 a las 02 UTC al 20 a las 07 UTC
Visibilidad: 4000 m
calima
Evolucionando progresivamente
del 20 a las 08 UTC al 20 a las 10 UTC
Viento 14 kt del oeste-noroeste
Visibilidad: 5000 m
calima

TAF: OJAM 191633Z 1918/2024 29004KT 6000 NSC TEMPO 2002/2007 4000 HZ BECMG 2008/2010 30014KT 5000 HZ NSC

Observaciones y pronósticos meteorológicos de más de 4000 aeropuertos (mensajes METAR y TAF).

Los puntos amarillos y rojos representan las estaciones disponibles.

Ponga el ratón en el punto deseado para ver el nombre de la estación.

Haga clic para ver las observaciones y los pronósticos meteorológicos.

Para cambiar el mapa : haga clic en los botones verdes con una cruz de color negro para hacer un zoom, en el botón verde con un guión para alejar o en las flechas verdes para mapas adyacentes.


METAR-TAF: